sensor_id;sensor_type;location;lat;lon;timestamp;P1;P2;P0
69746;PMS7003;57018;50.278;19.134;2022-10-23T00:01:23;59.50;47.00;30.75
69746;PMS7003;57018;50.278;19.134;2022-10-23T00:04:00;58.00;47.00;29.50
69746;PMS7003;57018;50.278;19.134;2022-10-23T00:06:27;56.50;43.75;28.00
69746;PMS7003;57018;50.278;19.134;2022-10-23T00:08:54;50.50;41.25;26.50
69746;PMS7003;57018;50.278;19.134;2022-10-23T00:11:22;59.00;46.00;30.00
69746;PMS7003;57018;50.278;19.134;2022-10-23T00:13:50;59.00;45.75;29.75
69746;PMS7003;57018;50.278;19.134;2022-10-23T00:16:18;52.50;43.50;28.75
69746;PMS7003;57018;50.278;19.134;2022-10-23T00:18:44;60.00;47.00;29.75
69746;PMS7003;57018;50.278;19.134;2022-10-23T00:21:11;54.50;42.00;29.00
69746;PMS7003;57018;50.278;19.134;2022-10-23T00:23:39;53.00;42.75;28.00
69746;PMS7003;57018;50.278;19.134;2022-10-23T00:26:06;51.25;40.75;25.25
69746;PMS7003;57018;50.278;19.134;2022-10-23T00:28:35;46.75;39.25;25.50
69746;PMS7003;57018;50.278;19.134;2022-10-23T00:31:02;51.75;41.25;25.00
69746;PMS7003;57018;50.278;19.134;2022-10-23T00:33:30;52.50;41.75;27.00
69746;PMS7003;57018;50.278;19.134;2022-10-23T00:35:56;57.00;46.75;29.00
69746;PMS7003;57018;50.278;19.134;2022-10-23T00:38:23;59.25;47.00;30.00
69746;PMS7003;57018;50.278;19.134;2022-10-23T00:40:49;60.75;50.50;32.00
69746;PMS7003;57018;50.278;19.134;2022-10-23T00:43:24;56.75;44.75;27.75
69746;PMS7003;57018;50.278;19.134;2022-10-23T00:45:44;51.00;43.00;27.50
69746;PMS7003;57018;50.278;19.134;2022-10-23T00:48:11;56.00;44.25;28.00
69746;PMS7003;57018;50.278;19.134;2022-10-23T00:50:37;56.50;45.00;29.00
69746;PMS7003;57018;50.278;19.134;2022-10-23T00:53:03;47.00;38.50;26.25
69746;PMS7003;57018;50.278;19.134;2022-10-23T00:55:32;52.75;44.25;28.75
69746;PMS7003;57018;50.278;19.134;2022-10-23T00:58:00;51.75;43.00;27.75
69746;PMS7003;57018;50.278;19.134;2022-10-23T01:00:27;47.25;40.50;25.00
69746;PMS7003;57018;50.278;19.134;2022-10-23T01:02:56;51.50;42.50;25.25
69746;PMS7003;57018;50.278;19.134;2022-10-23T01:05:26;51.25;41.50;26.75
69746;PMS7003;57018;50.278;19.134;2022-10-23T01:08:01;49.00;42.25;26.00
69746;PMS7003;57018;50.278;19.134;2022-10-23T01:10:39;49.75;39.00;24.00
69746;PMS7003;57018;50.278;19.134;2022-10-23T01:18:46;50.75;41.75;27.25
69746;PMS7003;57018;50.278;19.134;2022-10-23T01:21:19;50.50;42.00;26.25
69746;PMS7003;57018;50.278;19.134;2022-10-23T01:24:11;53.00;44.00;29.00
69746;PMS7003;57018;50.278;19.134;2022-10-23T01:29:20;51.25;42.75;27.25
69746;PMS7003;57018;50.278;19.134;2022-10-23T01:32:06;57.50;44.50;27.50
69746;PMS7003;57018;50.278;19.134;2022-10-23T01:34:38;49.50;41.25;25.25
69746;PMS7003;57018;50.278;19.134;2022-10-23T01:37:12;57.75;43.75;26.00
69746;PMS7003;57018;50.278;19.134;2022-10-23T01:39:43;50.00;41.00;25.75
69746;PMS7003;57018;50.278;19.134;2022-10-23T01:42:18;50.75;40.25;25.75
69746;PMS7003;57018;50.278;19.134;2022-10-23T01:44:50;58.25;46.00;28.25
69746;PMS7003;57018;50.278;19.134;2022-10-23T01:47:16;58.75;47.00;30.75
69746;PMS7003;57018;50.278;19.134;2022-10-23T01:49:44;59.00;47.00;29.25
69746;PMS7003;57018;50.278;19.134;2022-10-23T01:52:13;59.50;48.25;31.00
69746;PMS7003;57018;50.278;19.134;2022-10-23T01:54:42;57.00;47.00;31.25
69746;PMS7003;57018;50.278;19.134;2022-10-23T01:57:12;57.00;44.75;28.00
69746;PMS7003;57018;50.278;19.134;2022-10-23T01:59:42;57.00;44.75;28.00
69746;PMS7003;57018;50.278;19.134;2022-10-23T02:02:13;49.25;42.00;25.25
69746;PMS7003;57018;50.278;19.134;2022-10-23T02:04:48;54.25;44.00;27.50
69746;PMS7003;57018;50.278;19.134;2022-10-23T02:07:16;56.50;44.25;27.75
69746;PMS7003;57018;50.278;19.134;2022-10-23T02:09:42;52.50;43.00;25.25
69746;PMS7003;57018;50.278;19.134;2022-10-23T02:12:09;52.00;42.75;27.00
69746;PMS7003;57018;50.278;19.134;2022-10-23T02:14:45;50.75;40.25;26.00
69746;PMS7003;57018;50.278;19.134;2022-10-23T02:17:28;50.00;37.75;23.75
69746;PMS7003;57018;50.278;19.134;2022-10-23T02:20:26;52.50;41.00;27.25
69746;PMS7003;57018;50.278;19.134;2022-10-23T02:23:00;50.00;39.50;25.75
69746;PMS7003;57018;50.278;19.134;2022-10-23T02:25:40;50.00;39.75;26.25
69746;PMS7003;57018;50.278;19.134;2022-10-23T02:28:10;50.50;41.50;26.25
69746;PMS7003;57018;50.278;19.134;2022-10-23T02:30:40;51.50;40.75;26.75
69746;PMS7003;57018;50.278;19.134;2022-10-23T02:33:09;47.25;38.75;25.25
69746;PMS7003;57018;50.278;19.134;2022-10-23T02:35:38;47.25;38.25;25.00
69746;PMS7003;57018;50.278;19.134;2022-10-23T02:38:25;55.50;43.25;27.75
69746;PMS7003;57018;50.278;19.134;2022-10-23T02:40:50;46.75;40.75;26.00
69746;PMS7003;57018;50.278;19.134;2022-10-23T02:43:26;44.25;34.75;21.75
69746;PMS7003;57018;50.278;19.134;2022-10-23T02:46:13;44.25;38.00;25.00
69746;PMS7003;57018;50.278;19.134;2022-10-23T02:48:44;44.75;38.00;24.00
69746;PMS7003;57018;50.278;19.134;2022-10-23T02:51:13;42.25;34.75;23.75
69746;PMS7003;57018;50.278;19.134;2022-10-23T02:53:47;52.50;42.50;25.25
69746;PMS7003;57018;50.278;19.134;2022-10-23T02:56:39;54.25;40.50;25.75
69746;PMS7003;57018;50.278;19.134;2022-10-23T03:01:50;40.25;35.75;22.75
69746;PMS7003;57018;50.278;19.134;2022-10-23T03:04:23;53.00;38.25;23.75
69746;PMS7003;57018;50.278;19.134;2022-10-23T03:06:50;48.00;36.75;22.00
69746;PMS7003;57018;50.278;19.134;2022-10-23T03:09:17;53.00;41.25;26.25
69746;PMS7003;57018;50.278;19.134;2022-10-23T03:11:43;48.25;39.25;24.50
69746;PMS7003;57018;50.278;19.134;2022-10-23T03:14:10;44.50;38.00;24.75
69746;PMS7003;57018;50.278;19.134;2022-10-23T03:16:38;41.25;34.50;22.25
69746;PMS7003;57018;50.278;19.134;2022-10-23T03:19:04;40.50;34.50;19.50
69746;PMS7003;57018;50.278;19.134;2022-10-23T03:21:30;40.00;35.50;21.00
69746;PMS7003;57018;50.278;19.134;2022-10-23T03:23:56;38.25;31.75;20.00
69746;PMS7003;57018;50.278;19.134;2022-10-23T03:26:22;39.00;32.00;20.00
69746;PMS7003;57018;50.278;19.134;2022-10-23T03:28:48;33.75;29.25;18.75
69746;PMS7003;57018;50.278;19.134;2022-10-23T03:31:14;42.50;35.75;23.00
69746;PMS7003;57018;50.278;19.134;2022-10-23T03:33:40;33.00;28.00;20.50
69746;PMS7003;57018;50.278;19.134;2022-10-23T03:36:06;40.50;34.00;21.00
69746;PMS7003;57018;50.278;19.134;2022-10-23T03:38:33;37.50;33.75;22.25
69746;PMS7003;57018;50.278;19.134;2022-10-23T03:40:59;42.00;35.50;23.00
69746;PMS7003;57018;50.278;19.134;2022-10-23T03:43:25;41.50;36.75;23.00
69746;PMS7003;57018;50.278;19.134;2022-10-23T03:45:51;48.75;35.00;21.00
69746;PMS7003;57018;50.278;19.134;2022-10-23T03:48:17;36.50;32.00;21.00
69746;PMS7003;57018;50.278;19.134;2022-10-23T03:50:43;40.00;32.25;20.25
69746;PMS7003;57018;50.278;19.134;2022-10-23T03:53:10;43.00;34.00;20.50
69746;PMS7003;57018;50.278;19.134;2022-10-23T03:55:36;38.75;32.25;21.00
69746;PMS7003;57018;50.278;19.134;2022-10-23T03:58:02;47.00;35.25;21.00
69746;PMS7003;57018;50.278;19.134;2022-10-23T04:00:28;41.25;35.00;22.25
69746;PMS7003;57018;50.278;19.134;2022-10-23T04:02:54;45.00;37.50;24.00
69746;PMS7003;57018;50.278;19.134;2022-10-23T04:05:20;44.25;37.00;21.00
69746;PMS7003;57018;50.278;19.134;2022-10-23T04:07:46;39.00;32.25;20.75
69746;PMS7003;57018;50.278;19.134;2022-10-23T04:10:12;39.25;33.50;21.50
69746;PMS7003;57018;50.278;19.134;2022-10-23T04:12:38;45.00;37.00;21.00
69746;PMS7003;57018;50.278;19.134;2022-10-23T04:15:04;40.25;34.25;22.75
69746;PMS7003;57018;50.278;19.134;2022-10-23T04:17:30;44.75;34.75;23.25
69746;PMS7003;57018;50.278;19.134;2022-10-23T04:19:56;48.75;39.00;24.75
69746;PMS7003;57018;50.278;19.134;2022-10-23T04:22:23;45.00;36.75;23.50
69746;PMS7003;57018;50.278;19.134;2022-10-23T04:24:49;48.00;39.00;24.00
69746;PMS7003;57018;50.278;19.134;2022-10-23T04:27:15;48.00;37.75;24.00
69746;PMS7003;57018;50.278;19.134;2022-10-23T04:29:41;44.50;37.25;22.50
69746;PMS7003;57018;50.278;19.134;2022-10-23T04:32:07;47.50;37.25;23.00
69746;PMS7003;57018;50.278;19.134;2022-10-23T04:34:33;46.50;36.00;21.75
69746;PMS7003;57018;50.278;19.134;2022-10-23T04:36:59;42.25;36.50;22.75
69746;PMS7003;57018;50.278;19.134;2022-10-23T04:39:25;44.50;34.75;22.25
69746;PMS7003;57018;50.278;19.134;2022-10-23T04:41:51;45.25;38.25;23.50
69746;PMS7003;57018;50.278;19.134;2022-10-23T04:44:17;39.50;35.25;23.25
69746;PMS7003;57018;50.278;19.134;2022-10-23T04:46:43;38.75;34.75;23.00
69746;PMS7003;57018;50.278;19.134;2022-10-23T04:49:09;49.25;37.75;23.50
69746;PMS7003;57018;50.278;19.134;2022-10-23T04:51:35;44.75;37.25;23.75
69746;PMS7003;57018;50.278;19.134;2022-10-23T04:54:02;53.00;43.50;25.00
69746;PMS7003;57018;50.278;19.134;2022-10-23T04:56:29;53.25;42.75;24.25
69746;PMS7003;57018;50.278;19.134;2022-10-23T04:58:55;41.75;36.75;23.75
69746;PMS7003;57018;50.278;19.134;2022-10-23T05:01:21;47.25;37.50;24.00
69746;PMS7003;57018;50.278;19.134;2022-10-23T05:03:47;51.50;43.00;26.00
69746;PMS7003;57018;50.278;19.134;2022-10-23T05:06:13;48.75;40.75;26.25
69746;PMS7003;57018;50.278;19.134;2022-10-23T05:08:39;56.50;45.50;29.00
69746;PMS7003;57018;50.278;19.134;2022-10-23T05:11:05;55.50;44.00;28.25
69746;PMS7003;57018;50.278;19.134;2022-10-23T05:13:31;57.75;46.25;28.25
69746;PMS7003;57018;50.278;19.134;2022-10-23T05:15:57;54.00;43.75;28.00
69746;PMS7003;57018;50.278;19.134;2022-10-23T05:18:37;58.75;46.25;30.00
69746;PMS7003;57018;50.278;19.134;2022-10-23T05:21:16;61.75;49.00;31.50
69746;PMS7003;57018;50.278;19.134;2022-10-23T05:23:46;60.25;48.00;30.00
69746;PMS7003;57018;50.278;19.134;2022-10-23T05:26:13;54.25;43.25;29.00
69746;PMS7003;57018;50.278;19.134;2022-10-23T05:28:39;58.50;47.00;30.00
69746;PMS7003;57018;50.278;19.134;2022-10-23T05:31:05;60.50;47.25;30.00
69746;PMS7003;57018;50.278;19.134;2022-10-23T05:33:32;66.25;53.00;33.00
69746;PMS7003;57018;50.278;19.134;2022-10-23T05:35:59;66.00;51.00;32.50
69746;PMS7003;57018;50.278;19.134;2022-10-23T05:38:28;65.00;51.25;33.00
69746;PMS7003;57018;50.278;19.134;2022-10-23T05:40:57;58.00;47.75;29.25
69746;PMS7003;57018;50.278;19.134;2022-10-23T05:43:23;64.75;50.00;29.25
69746;PMS7003;57018;50.278;19.134;2022-10-23T05:45:51;55.25;45.75;27.00
69746;PMS7003;57018;50.278;19.134;2022-10-23T05:48:18;57.00;46.25;29.25
69746;PMS7003;57018;50.278;19.134;2022-10-23T05:50:44;60.75;49.00;31.00
69746;PMS7003;57018;50.278;19.134;2022-10-23T05:53:10;64.25;50.00;31.50
69746;PMS7003;57018;50.278;19.134;2022-10-23T05:55:36;63.50;49.00;30.75
69746;PMS7003;57018;50.278;19.134;2022-10-23T05:58:02;67.75;52.75;32.50
69746;PMS7003;57018;50.278;19.134;2022-10-23T06:00:29;59.50;48.00;29.00
69746;PMS7003;57018;50.278;19.134;2022-10-23T06:02:58;60.00;48.50;29.00
69746;PMS7003;57018;50.278;19.134;2022-10-23T06:05:24;64.00;48.75;30.00
69746;PMS7003;57018;50.278;19.134;2022-10-23T06:07:50;64.25;49.75;30.25
69746;PMS7003;57018;50.278;19.134;2022-10-23T06:10:16;53.00;42.75;26.75
69746;PMS7003;57018;50.278;19.134;2022-10-23T06:12:42;52.25;42.50;26.00
69746;PMS7003;57018;50.278;19.134;2022-10-23T06:15:09;53.75;41.00;25.50
69746;PMS7003;57018;50.278;19.134;2022-10-23T06:17:35;52.50;42.50;26.50
69746;PMS7003;57018;50.278;19.134;2022-10-23T06:20:01;51.50;40.25;26.00
69746;PMS7003;57018;50.278;19.134;2022-10-23T06:22:28;53.75;43.25;27.75
69746;PMS7003;57018;50.278;19.134;2022-10-23T06:24:54;55.50;44.50;27.50
69746;PMS7003;57018;50.278;19.134;2022-10-23T06:27:20;53.50;44.50;27.75
69746;PMS7003;57018;50.278;19.134;2022-10-23T06:29:47;54.75;43.25;27.50
69746;PMS7003;57018;50.278;19.134;2022-10-23T06:32:13;53.50;44.00;27.00
69746;PMS7003;57018;50.278;19.134;2022-10-23T06:34:39;58.75;45.00;29.00
69746;PMS7003;57018;50.278;19.134;2022-10-23T06:37:06;56.75;45.50;28.00
69746;PMS7003;57018;50.278;19.134;2022-10-23T06:39:32;57.25;45.50;28.25
69746;PMS7003;57018;50.278;19.134;2022-10-23T06:41:58;59.75;45.00;28.00
69746;PMS7003;57018;50.278;19.134;2022-10-23T06:44:24;52.75;42.75;26.50
69746;PMS7003;57018;50.278;19.134;2022-10-23T06:46:50;48.75;38.50;22.25
69746;PMS7003;57018;50.278;19.134;2022-10-23T06:49:16;57.00;45.75;27.75
69746;PMS7003;57018;50.278;19.134;2022-10-23T06:51:42;51.25;43.00;28.00
69746;PMS7003;57018;50.278;19.134;2022-10-23T06:54:09;51.00;40.50;26.00
69746;PMS7003;57018;50.278;19.134;2022-10-23T06:56:36;59.00;46.75;27.00
69746;PMS7003;57018;50.278;19.134;2022-10-23T06:59:02;52.50;40.25;25.25
69746;PMS7003;57018;50.278;19.134;2022-10-23T07:01:30;50.00;39.25;23.50
69746;PMS7003;57018;50.278;19.134;2022-10-23T07:03:56;56.50;47.00;29.25
69746;PMS7003;57018;50.278;19.134;2022-10-23T07:06:22;56.75;45.25;27.75
69746;PMS7003;57018;50.278;19.134;2022-10-23T07:08:48;57.75;45.50;29.00
69746;PMS7003;57018;50.278;19.134;2022-10-23T07:11:15;58.25;46.75;28.25
69746;PMS7003;57018;50.278;19.134;2022-10-23T07:13:41;53.25;42.25;26.75
69746;PMS7003;57018;50.278;19.134;2022-10-23T07:16:09;53.25;41.75;24.25
69746;PMS7003;57018;50.278;19.134;2022-10-23T07:18:37;41.75;35.00;23.00
69746;PMS7003;57018;50.278;19.134;2022-10-23T07:21:04;48.50;39.75;25.75
69746;PMS7003;57018;50.278;19.134;2022-10-23T07:23:31;40.25;34.25;24.00
69746;PMS7003;57018;50.278;19.134;2022-10-23T07:26:08;47.75;39.00;24.50
69746;PMS7003;57018;50.278;19.134;2022-10-23T07:28:35;46.25;39.50;24.00
69746;PMS7003;57018;50.278;19.134;2022-10-23T07:31:03;53.75;41.50;27.25
69746;PMS7003;57018;50.278;19.134;2022-10-23T07:33:29;47.00;41.00;27.00
69746;PMS7003;57018;50.278;19.134;2022-10-23T07:35:55;52.50;42.25;26.00
69746;PMS7003;57018;50.278;19.134;2022-10-23T07:38:21;51.25;40.25;26.50
69746;PMS7003;57018;50.278;19.134;2022-10-23T07:40:48;47.00;36.25;22.00
69746;PMS7003;57018;50.278;19.134;2022-10-23T07:43:14;52.50;41.75;26.50
69746;PMS7003;57018;50.278;19.134;2022-10-23T07:45:42;53.00;41.00;28.00
69746;PMS7003;57018;50.278;19.134;2022-10-23T07:48:10;49.00;39.75;24.75
69746;PMS7003;57018;50.278;19.134;2022-10-23T07:50:36;50.50;39.50;25.25
69746;PMS7003;57018;50.278;19.134;2022-10-23T07:53:03;53.50;44.25;28.50
69746;PMS7003;57018;50.278;19.134;2022-10-23T07:55:29;44.75;38.00;24.00
69746;PMS7003;57018;50.278;19.134;2022-10-23T07:57:55;40.25;37.75;26.25
69746;PMS7003;57018;50.278;19.134;2022-10-23T08:00:21;45.25;35.25;22.75
69746;PMS7003;57018;50.278;19.134;2022-10-23T08:02:50;49.50;38.75;23.50
69746;PMS7003;57018;50.278;19.134;2022-10-23T08:05:17;34.00;33.75;22.00
69746;PMS7003;57018;50.278;19.134;2022-10-23T08:07:44;51.75;42.25;26.00
69746;PMS7003;57018;50.278;19.134;2022-10-23T08:10:10;46.00;35.75;23.00
69746;PMS7003;57018;50.278;19.134;2022-10-23T08:12:37;49.50;41.25;26.50
69746;PMS7003;57018;50.278;19.134;2022-10-23T08:15:03;48.75;41.00;25.75
69746;PMS7003;57018;50.278;19.134;2022-10-23T08:17:29;48.75;40.00;25.00
69746;PMS7003;57018;50.278;19.134;2022-10-23T08:19:56;49.50;37.00;22.75
69746;PMS7003;57018;50.278;19.134;2022-10-23T08:22:22;43.00;36.25;23.25
69746;PMS7003;57018;50.278;19.134;2022-10-23T08:24:48;40.75;36.75;23.00
69746;PMS7003;57018;50.278;19.134;2022-10-23T08:27:14;35.00;28.50;21.00
69746;PMS7003;57018;50.278;19.134;2022-10-23T08:29:40;40.50;31.25;22.25
69746;PMS7003;57018;50.278;19.134;2022-10-23T08:32:06;35.50;32.75;21.00
69746;PMS7003;57018;50.278;19.134;2022-10-23T08:34:32;40.75;35.25;21.75
69746;PMS7003;57018;50.278;19.134;2022-10-23T08:36:58;36.50;32.25;20.50
69746;PMS7003;57018;50.278;19.134;2022-10-23T08:39:24;39.25;35.50;24.00
69746;PMS7003;57018;50.278;19.134;2022-10-23T08:41:52;36.75;34.50;21.75
69746;PMS7003;57018;50.278;19.134;2022-10-23T08:44:26;30.00;29.25;20.75
69746;PMS7003;57018;50.278;19.134;2022-10-23T08:46:58;24.00;20.75;14.50
69746;PMS7003;57018;50.278;19.134;2022-10-23T08:49:49;28.50;26.75;17.00
69746;PMS7003;57018;50.278;19.134;2022-10-23T08:52:22;30.50;27.75;18.50
69746;PMS7003;57018;50.278;19.134;2022-10-23T08:54:59;35.25;30.25;20.00
69746;PMS7003;57018;50.278;19.134;2022-10-23T08:57:34;39.00;32.25;18.50
69746;PMS7003;57018;50.278;19.134;2022-10-23T09:00:04;27.50;27.50;17.75
69746;PMS7003;57018;50.278;19.134;2022-10-23T09:02:35;29.75;29.50;19.50
69746;PMS7003;57018;50.278;19.134;2022-10-23T09:05:02;27.75;24.75;16.50
69746;PMS7003;57018;50.278;19.134;2022-10-23T09:07:38;23.50;23.50;15.75
69746;PMS7003;57018;50.278;19.134;2022-10-23T09:13:15;23.50;22.75;15.50
69746;PMS7003;57018;50.278;19.134;2022-10-23T09:15:46;31.25;27.50;18.50
69746;PMS7003;57018;50.278;19.134;2022-10-23T09:18:18;30.75;29.75;19.25
69746;PMS7003;57018;50.278;19.134;2022-10-23T09:20:45;34.00;30.00;19.50
69746;PMS7003;57018;50.278;19.134;2022-10-23T09:23:13;29.25;27.75;16.75
69746;PMS7003;57018;50.278;19.134;2022-10-23T09:25:44;29.75;25.50;16.25
69746;PMS7003;57018;50.278;19.134;2022-10-23T09:28:19;31.25;26.50;17.75
69746;PMS7003;57018;50.278;19.134;2022-10-23T09:30:48;33.25;28.50;18.50
69746;PMS7003;57018;50.278;19.134;2022-10-23T09:33:23;32.00;29.50;16.75
69746;PMS7003;57018;50.278;19.134;2022-10-23T09:38:30;40.25;33.25;21.00
69746;PMS7003;57018;50.278;19.134;2022-10-23T09:41:16;34.75;32.25;19.25
69746;PMS7003;57018;50.278;19.134;2022-10-23T09:43:45;35.25;33.25;21.50
69746;PMS7003;57018;50.278;19.134;2022-10-23T09:46:12;44.25;39.00;25.00
69746;PMS7003;57018;50.278;19.134;2022-10-23T09:48:38;31.00;31.00;21.75
69746;PMS7003;57018;50.278;19.134;2022-10-23T09:51:17;30.50;29.25;21.50
69746;PMS7003;57018;50.278;19.134;2022-10-23T09:53:49;35.50;30.00;18.25
69746;PMS7003;57018;50.278;19.134;2022-10-23T09:56:28;33.50;31.75;20.25
69746;PMS7003;57018;50.278;19.134;2022-10-23T09:59:00;36.50;30.50;19.00
69746;PMS7003;57018;50.278;19.134;2022-10-23T10:01:35;44.00;37.25;22.75
69746;PMS7003;57018;50.278;19.134;2022-10-23T10:04:03;44.25;32.75;21.25
69746;PMS7003;57018;50.278;19.134;2022-10-23T10:06:30;36.75;32.25;20.00
69746;PMS7003;57018;50.278;19.134;2022-10-23T10:09:04;41.00;36.75;24.50
69746;PMS7003;57018;50.278;19.134;2022-10-23T10:25:05;46.00;34.50;22.50
69746;PMS7003;57018;50.278;19.134;2022-10-23T10:27:51;36.25;32.50;21.50
69746;PMS7003;57018;50.278;19.134;2022-10-23T10:30:21;41.25;35.50;23.00
69746;PMS7003;57018;50.278;19.134;2022-10-23T10:43:23;33.50;29.50;18.25
69746;PMS7003;57018;50.278;19.134;2022-10-23T10:45:56;31.50;29.75;20.25
69746;PMS7003;57018;50.278;19.134;2022-10-23T10:56:19;32.25;28.25;18.00
69746;PMS7003;57018;50.278;19.134;2022-10-23T10:58:55;31.50;31.25;22.00
69746;PMS7003;57018;50.278;19.134;2022-10-23T11:01:36;35.00;33.00;21.50
69746;PMS7003;57018;50.278;19.134;2022-10-23T11:06:56;35.00;33.25;19.00
69746;PMS7003;57018;50.278;19.134;2022-10-23T11:09:29;35.00;29.75;19.00
69746;PMS7003;57018;50.278;19.134;2022-10-23T11:11:53;27.25;24.00;15.25
69746;PMS7003;57018;50.278;19.134;2022-10-23T11:14:21;25.25;24.50;18.25
69746;PMS7003;57018;50.278;19.134;2022-10-23T11:16:58;19.75;19.50;13.00
69746;PMS7003;57018;50.278;19.134;2022-10-23T11:19:41;16.75;14.50;9.75
69746;PMS7003;57018;50.278;19.134;2022-10-23T11:24:44;22.75;20.25;13.50
69746;PMS7003;57018;50.278;19.134;2022-10-23T11:33:05;18.75;17.50;12.25
69746;PMS7003;57018;50.278;19.134;2022-10-23T11:38:27;21.75;16.00;12.00
69746;PMS7003;57018;50.278;19.134;2022-10-23T11:40:56;18.50;16.75;9.75
69746;PMS7003;57018;50.278;19.134;2022-10-23T11:43:32;18.75;15.75;9.50
69746;PMS7003;57018;50.278;19.134;2022-10-23T11:45:58;17.50;16.00;11.50
69746;PMS7003;57018;50.278;19.134;2022-10-23T11:48:39;22.00;19.75;13.75
69746;PMS7003;57018;50.278;19.134;2022-10-23T11:54:04;16.75;15.00;9.25
69746;PMS7003;57018;50.278;19.134;2022-10-23T11:56:31;19.25;16.00;11.25
69746;PMS7003;57018;50.278;19.134;2022-10-23T11:58:58;15.00;14.25;9.50
69746;PMS7003;57018;50.278;19.134;2022-10-23T12:06:45;20.50;15.00;10.75
69746;PMS7003;57018;50.278;19.134;2022-10-23T12:14:39;13.50;13.50;9.25
69746;PMS7003;57018;50.278;19.134;2022-10-23T12:19:53;16.50;16.00;11.25
69746;PMS7003;57018;50.278;19.134;2022-10-23T12:22:23;14.25;12.75;8.25
69746;PMS7003;57018;50.278;19.134;2022-10-23T12:30:24;15.00;15.00;11.25
69746;PMS7003;57018;50.278;19.134;2022-10-23T12:35:54;15.25;13.50;8.50
69746;PMS7003;57018;50.278;19.134;2022-10-23T12:38:23;18.00;13.50;9.50
69746;PMS7003;57018;50.278;19.134;2022-10-23T12:41:14;17.25;14.75;10.00
69746;PMS7003;57018;50.278;19.134;2022-10-23T12:43:41;17.75;15.00;9.50
69746;PMS7003;57018;50.278;19.134;2022-10-23T12:48:55;20.50;14.50;10.25
69746;PMS7003;57018;50.278;19.134;2022-10-23T12:51:31;15.75;13.75;8.25
69746;PMS7003;57018;50.278;19.134;2022-10-23T12:53:59;18.50;16.00;10.50
69746;PMS7003;57018;50.278;19.134;2022-10-23T12:56:26;18.25;16.25;9.75
69746;PMS7003;57018;50.278;19.134;2022-10-23T12:58:55;20.75;18.50;12.75
69746;PMS7003;57018;50.278;19.134;2022-10-23T13:01:26;16.50;16.50;12.75
69746;PMS7003;57018;50.278;19.134;2022-10-23T13:04:09;19.50;17.50;11.75
69746;PMS7003;57018;50.278;19.134;2022-10-23T13:06:45;18.75;17.75;10.75
69746;PMS7003;57018;50.278;19.134;2022-10-23T13:09:30;17.25;13.25;10.50
69746;PMS7003;57018;50.278;19.134;2022-10-23T13:11:58;18.25;15.75;10.50
69746;PMS7003;57018;50.278;19.134;2022-10-23T13:14:34;17.00;14.50;10.25
69746;PMS7003;57018;50.278;19.134;2022-10-23T13:17:03;20.00;18.50;11.50
69746;PMS7003;57018;50.278;19.134;2022-10-23T13:19:32;17.75;17.75;11.25
69746;PMS7003;57018;50.278;19.134;2022-10-23T13:21:59;16.75;14.75;9.25
69746;PMS7003;57018;50.278;19.134;2022-10-23T13:24:28;17.25;16.50;11.50
69746;PMS7003;57018;50.278;19.134;2022-10-23T13:26:55;17.75;17.75;12.25
69746;PMS7003;57018;50.278;19.134;2022-10-23T13:29:33;14.00;14.00;10.75
69746;PMS7003;57018;50.278;19.134;2022-10-23T13:32:11;12.75;11.25;9.75
69746;PMS7003;57018;50.278;19.134;2022-10-23T13:34:39;22.25;16.75;11.25
69746;PMS7003;57018;50.278;19.134;2022-10-23T13:37:22;17.25;17.00;12.00
69746;PMS7003;57018;50.278;19.134;2022-10-23T13:40:01;17.75;15.50;12.25
69746;PMS7003;57018;50.278;19.134;2022-10-23T13:42:29;18.50;16.50;11.75
69746;PMS7003;57018;50.278;19.134;2022-10-23T13:44:55;26.25;23.25;16.25
69746;PMS7003;57018;50.278;19.134;2022-10-23T13:47:21;18.00;18.00;12.00
69746;PMS7003;57018;50.278;19.134;2022-10-23T13:49:47;18.25;18.25;11.50
69746;PMS7003;57018;50.278;19.134;2022-10-23T13:52:14;22.25;22.00;14.00
69746;PMS7003;57018;50.278;19.134;2022-10-23T13:54:44;14.50;12.75;9.00
69746;PMS7003;57018;50.278;19.134;2022-10-23T13:57:12;15.75;11.25;7.25
69746;PMS7003;57018;50.278;19.134;2022-10-23T13:59:39;15.00;12.75;8.00
69746;PMS7003;57018;50.278;19.134;2022-10-23T14:02:14;13.25;13.00;9.25
69746;PMS7003;57018;50.278;19.134;2022-10-23T14:04:38;10.75;10.75;8.25
69746;PMS7003;57018;50.278;19.134;2022-10-23T14:07:04;14.25;13.50;9.00
69746;PMS7003;57018;50.278;19.134;2022-10-23T14:09:30;11.25;10.75;7.25
69746;PMS7003;57018;50.278;19.134;2022-10-23T14:11:56;14.75;14.75;8.50
69746;PMS7003;57018;50.278;19.134;2022-10-23T14:14:22;10.75;10.50;7.50
69746;PMS7003;57018;50.278;19.134;2022-10-23T14:16:48;11.75;9.50;7.25
69746;PMS7003;57018;50.278;19.134;2022-10-23T14:19:14;9.00;8.25;5.00
69746;PMS7003;57018;50.278;19.134;2022-10-23T14:21:40;11.25;11.25;8.50
69746;PMS7003;57018;50.278;19.134;2022-10-23T14:24:07;16.25;13.25;8.75
69746;PMS7003;57018;50.278;19.134;2022-10-23T14:26:33;11.50;11.25;7.25
69746;PMS7003;57018;50.278;19.134;2022-10-23T14:28:59;7.50;6.75;4.00
69746;PMS7003;57018;50.278;19.134;2022-10-23T14:31:25;14.00;12.25;8.75
69746;PMS7003;57018;50.278;19.134;2022-10-23T14:33:53;12.50;12.50;10.00
69746;PMS7003;57018;50.278;19.134;2022-10-23T14:36:21;17.75;16.25;11.00
69746;PMS7003;57018;50.278;19.134;2022-10-23T14:38:48;13.50;13.50;8.50
69746;PMS7003;57018;50.278;19.134;2022-10-23T14:41:15;18.50;17.00;12.50
69746;PMS7003;57018;50.278;19.134;2022-10-23T14:43:42;20.50;17.25;13.00
69746;PMS7003;57018;50.278;19.134;2022-10-23T14:46:12;17.00;15.50;11.50
69746;PMS7003;57018;50.278;19.134;2022-10-23T14:48:40;13.00;13.00;11.25
69746;PMS7003;57018;50.278;19.134;2022-10-23T14:51:14;16.25;15.50;12.50
69746;PMS7003;57018;50.278;19.134;2022-10-23T14:53:42;20.50;19.25;11.75
69746;PMS7003;57018;50.278;19.134;2022-10-23T14:56:08;25.25;21.00;13.75
69746;PMS7003;57018;50.278;19.134;2022-10-23T14:58:34;21.00;18.25;11.25
69746;PMS7003;57018;50.278;19.134;2022-10-23T15:01:00;21.25;20.75;14.00
69746;PMS7003;57018;50.278;19.134;2022-10-23T15:03:27;21.75;21.25;13.25
69746;PMS7003;57018;50.278;19.134;2022-10-23T15:05:54;25.00;22.50;15.50
69746;PMS7003;57018;50.278;19.134;2022-10-23T15:08:21;25.50;22.75;14.75
69746;PMS7003;57018;50.278;19.134;2022-10-23T15:10:48;25.50;23.00;15.75
69746;PMS7003;57018;50.278;19.134;2022-10-23T15:13:15;35.25;32.00;19.25
69746;PMS7003;57018;50.278;19.134;2022-10-23T15:15:41;36.50;32.00;21.75
69746;PMS7003;57018;50.278;19.134;2022-10-23T15:18:07;35.25;32.25;22.00